Time;durP1;ratioP1;P1;durP2;ratioP2;P2;SDS_P1;SDS_P2;PMS_P1;PMS_P2;Temp;Humidity;BMP_temperature;BMP_pressure;BME280_temperature;BME280_humidity;BME280_pressure;Samples;Min_cycle;Max_cycle;Signal;HPM_P1;HPM_P2
2022/09/03 00:00:37;;;;;;;;;;;;;;;;;;5087481;28;19916;-54
2022/09/03 00:03:03;;;;;;;;;;;;;;;;;;5087554;28;19912;-53
2022/09/03 00:05:28;;;;;;;;;;;;;;;;;;5086145;28;19916;-53
2022/09/03 00:07:54;;;;;;;;;;;;;;;;;;5087358;28;19920;-58
2022/09/03 00:10:21;;;;;;;;;;;;;;;;;;5086723;28;19916;-54
2022/09/03 00:12:46;;;;;;;;;;;;;;;;;;5085521;28;19928;-51
2022/09/03 00:15:11;;;;;;;;;;;;;;;;;;5088006;28;20293;-55
2022/09/03 00:17:36;;;;;;;;;;;;;;;;;;5086657;28;19920;-53
2022/09/03 00:20:02;;;;;;;;;;;;;;;;;;5088598;28;19912;-57
2022/09/03 00:22:27;;;;;;;;;;;;;;;;;;5088413;28;20470;-55
2022/09/03 00:24:52;;;;;;;;;;;;;;;;;;5087764;28;20325;-53
2022/09/03 00:27:17;;;;;;;;;;;;;;;;;;5088612;28;19916;-51
2022/09/03 00:29:43;;;;;;;;;;;;;;;;;;5073324;28;19911;-55
2022/09/03 00:32:08;;;;;;;;;;;;;;;;;;5087258;28;19916;-55
2022/09/03 00:34:33;;;;;;;;;;;;;;;;;;5088390;28;19981;-53
2022/09/03 00:36:58;;;;;;;;;;;;;;;;;;5088988;28;20455;-52
2022/09/03 00:39:24;;;;;;;;;;;;;;;;;;5087440;28;20328;-53
2022/09/03 00:41:49;;;;;;;;;;;;;;;;;;5087201;28;19916;-54
2022/09/03 00:44:14;;;;;;;;;;;;;;;;;;5087988;28;20133;-54
2022/09/03 00:46:40;;;;;;;;;;;;;;;;;;5088683;28;19923;-52
2022/09/03 00:49:05;;;;;;;;;;;;;;;;;;5088445;28;19916;-52
2022/09/03 00:51:30;;;;;;;;;;;;;;;;;;5088070;28;20377;-52
2022/09/03 00:53:56;;;;;;;;;;;;;;;;;;5069153;28;19920;-51
2022/09/03 00:56:21;;;;;;;;;;;;;;;;;;5087468;28;19924;-55
2022/09/03 00:58:46;;;;;;;;;;;;;;;;;;5088560;28;19919;-54
2022/09/03 01:01:11;;;;;;;;;;;;;;;;;;5068096;28;19919;-56
2022/09/03 01:03:37;;;;;;;;;;;;;;;;;;5084258;28;20236;-53
2022/09/03 01:06:02;;;;;;;;;;;;;;;;;;5087779;28;20300;-53
2022/09/03 01:08:30;;;;;;;;;;;;;;;;;;5071933;28;20037;-54
2022/09/03 01:10:56;;;;;;;;;;;;;;;;;;5069094;28;20380;-55
2022/09/03 01:13:22;;;;;;;;;;;;;;;;;;5088079;28;20368;-53
2022/09/03 01:15:49;;;;;;;;;;;;;;;;;;5086376;28;20286;-54
2022/09/03 01:18:14;;;;;;;;;;;;;;;;;;5088723;28;20345;-51
2022/09/03 01:20:40;;;;;;;;;;;;;;;;;;5071667;28;20383;-57
2022/09/03 01:23:05;;;;;;;;;;;;;;;;;;5085105;28;19918;-55
2022/09/03 01:25:31;;;;;;;;;;;;;;;;;;5087033;28;20456;-56
2022/09/03 01:27:57;;;;;;;;;;;;;;;;;;5072594;28;20402;-55
2022/09/03 01:30:23;;;;;;;;;;;;;;;;;;5087331;28;19923;-52
2022/09/03 01:32:48;;;;;;;;;;;;;;;;;;5088400;28;19912;-53
2022/09/03 01:35:15;;;;;;;;;;;;;;;;;;5087608;28;20018;-54
2022/09/03 01:37:40;;;;;;;;;;;;;;;;;;5084399;28;20118;-54
2022/09/03 01:40:05;;;;;;;;;;;;;;;;;;5086040;28;20040;-57
2022/09/03 01:42:31;;;;;;;;;;;;;;;;;;5072158;28;20341;-55
2022/09/03 01:45:00;;;;;;;;;;;;;;;;;;5087986;28;19919;-55
2022/09/03 01:47:25;;;;;;;;;;;;;;;;;;5087336;28;19922;-53
2022/09/03 01:49:50;;;;;;;;;;;;;;;;;;5086928;28;19916;-55
2022/09/03 01:52:16;;;;;;;;;;;;;;;;;;5085197;28;20368;-52
2022/09/03 01:54:41;;;;;;;;;;;;;;;;;;5087463;28;21158;-55
2022/09/03 01:57:06;;;;;;;;;;;;;;;;;;5087312;28;19959;-52
2022/09/03 01:59:31;;;;;;;;;;;;;;;;;;5087786;28;19994;-53
2022/09/03 02:01:57;;;;;;;;;;;;;;;;;;5087397;28;19914;-55
2022/09/03 02:04:23;;;;;;;;;;;;;;;;;;5087426;28;20288;-55
2022/09/03 02:06:48;;;;;;;;;;;;;;;;;;5084949;28;19916;-58
2022/09/03 02:09:14;;;;;;;;;;;;;;;;;;5085544;28;19988;-55
2022/09/03 02:11:40;;;;;;;;;;;;;;;;;;5087001;28;20378;-56
2022/09/03 02:14:05;;;;;;;;;;;;;;;;;;5068326;28;20374;-53
2022/09/03 02:16:30;;;;;;;;;;;;;;;;;;5087301;28;20617;-54
2022/09/03 02:18:55;;;;;;;;;;;;;;;;;;5086848;28;19917;-51
2022/09/03 02:21:21;;;;;;;;;;;;;;;;;;5085067;28;19997;-54
2022/09/03 02:23:46;;;;;;;;;;;;;;;;;;5087229;28;19923;-55
2022/09/03 02:26:11;;;;;;;;;;;;;;;;;;5072262;28;19919;-53
2022/09/03 02:28:36;;;;;;;;;;;;;;;;;;5087061;28;19916;-54
2022/09/03 02:31:01;;;;;;;;;;;;;;;;;;5086471;28;20352;-54
2022/09/03 02:33:27;;;;;;;;;;;;;;;;;;5087560;28;19920;-56
2022/09/03 02:35:52;;;;;;;;;;;;;;;;;;5086205;28;19985;-53
2022/09/03 02:38:17;;;;;;;;;;;;;;;;;;5086195;28;20023;-54
2022/09/03 02:40:42;;;;;;;;;;;;;;;;;;5086504;28;20040;-53
2022/09/03 02:43:07;;;;;;;;;;;;;;;;;;5087219;28;20284;-56
2022/09/03 02:45:33;;;;;;;;;;;;;;;;;;5085695;28;19965;-54
2022/09/03 02:47:58;;;;;;;;;;;;;;;;;;5086796;28;19969;-55
2022/09/03 02:50:23;;;;;;;;;;;;;;;;;;5088586;28;20334;-53
2022/09/03 02:52:48;;;;;;;;;;;;;;;;;;5067890;28;19923;-52
2022/09/03 02:55:14;;;;;;;;;;;;;;;;;;5090820;28;19978;-54
2022/09/03 02:57:39;;;;;;;;;;;;;;;;;;5090868;28;20263;-55
2022/09/03 03:00:04;;;;;;;;;;;;;;;;;;5089995;28;19931;-53
2022/09/03 03:02:30;;;;;;;;;;;;;;;;;;5088326;28;19912;-51
2022/09/03 03:04:55;;;;;;;;;;;;;;;;;;5090595;28;19920;-52
2022/09/03 03:07:20;;;;;;;;;;;;;;;;;;5071833;28;19908;-51
2022/09/03 03:09:45;;;;;;;;;;;;;;;;;;5073359;28;19947;-56
2022/09/03 03:12:10;;;;;;;;;;;;;;;;;;5073464;28;19920;-54
2022/09/03 03:14:36;;;;;;;;;;;;;;;;;;5091751;28;19923;-54
2022/09/03 03:17:01;;;;;;;;;;;;;;;;;;5089970;28;19999;-56
2022/09/03 03:19:26;;;;;;;;;;;;;;;;;;5089383;28;19939;-53
2022/09/03 03:21:51;;;;;;;;;;;;;;;;;;5088718;28;19969;-53
2022/09/03 03:24:16;;;;;;;;;;;;;;;;;;5090100;28;19916;-53
2022/09/03 03:26:41;;;;;;;;;;;;;;;;;;5088693;28;19922;-53
2022/09/03 03:29:07;;;;;;;;;;;;;;;;;;5089980;28;19939;-57
2022/09/03 03:31:32;;;;;;;;;;;;;;;;;;5072537;28;19973;-52
2022/09/03 03:33:57;;;;;;;;;;;;;;;;;;5089339;28;19926;-54
2022/09/03 03:36:22;;;;;;;;;;;;;;;;;;5089763;28;19920;-55
2022/09/03 03:38:47;;;;;;;;;;;;;;;;;;5089980;28;19916;-52
2022/09/03 03:41:13;;;;;;;;;;;;;;;;;;5088930;28;19920;-55
2022/09/03 03:43:39;;;;;;;;;;;;;;;;;;5090138;28;20461;-51
2022/09/03 03:46:04;;;;;;;;;;;;;;;;;;5087785;28;19913;-52
2022/09/03 03:48:29;;;;;;;;;;;;;;;;;;5089853;28;19918;-55
2022/09/03 03:50:54;;;;;;;;;;;;;;;;;;5089260;28;19916;-53
2022/09/03 03:53:19;;;;;;;;;;;;;;;;;;5089458;28;19920;-57
2022/09/03 03:55:44;;;;;;;;;;;;;;;;;;5088736;28;20010;-54
2022/09/03 03:58:10;;;;;;;;;;;;;;;;;;5090238;28;19943;-53
2022/09/03 04:00:37;;;;;;;;;;;;;;;;;;5087869;28;19916;-52
2022/09/03 04:03:02;;;;;;;;;;;;;;;;;;5089998;28;20649;-53
2022/09/03 04:05:27;;;;;;;;;;;;;;;;;;5088682;28;19965;-53
2022/09/03 04:07:52;;;;;;;;;;;;;;;;;;5089814;28;19920;-54
2022/09/03 04:10:17;;;;;;;;;;;;;;;;;;5088576;28;20007;-52
2022/09/03 04:12:43;;;;;;;;;;;;;;;;;;5089230;28;20013;-52
2022/09/03 04:15:08;;;;;;;;;;;;;;;;;;5086682;28;19924;-57
2022/09/03 04:17:33;;;;;;;;;;;;;;;;;;5088658;28;19916;-53
2022/09/03 04:19:58;;;;;;;;;;;;;;;;;;5086054;28;20699;-55
2022/09/03 04:22:23;;;;;;;;;;;;;;;;;;5087270;28;20007;-51
2022/09/03 04:24:49;;;;;;;;;;;;;;;;;;5090215;28;20365;-55
2022/09/03 04:27:14;;;;;;;;;;;;;;;;;;5088960;28;20007;-53
2022/09/03 04:29:39;;;;;;;;;;;;;;;;;;5088730;28;19954;-52
2022/09/03 04:34:48;;;;;;;;;;;;;;;;;;5087847;28;19962;-53
2022/09/03 04:37:15;;;;;;;;;;;;;;;;;;5087936;28;19955;-53
2022/09/03 04:39:40;;;;;;;;;;;;;;;;;;5088190;28;20046;-56
2022/09/03 04:42:05;;;;;;;;;;;;;;;;;;5088642;28;19936;-54
2022/09/03 04:44:31;;;;;;;;;;;;;;;;;;5072012;28;20494;-53
2022/09/03 04:46:56;;;;;;;;;;;;;;;;;;5088390;28;20364;-54
2022/09/03 04:49:23;;;;;;;;;;;;;;;;;;5087140;28;19959;-54
2022/09/03 04:51:48;;;;;;;;;;;;;;;;;;5088760;28;20249;-55
2022/09/03 04:54:14;;;;;;;;;;;;;;;;;;5088586;28;19948;-56
2022/09/03 04:56:39;;;;;;;;;;;;;;;;;;5087991;28;19963;-53
2022/09/03 04:59:04;;;;;;;;;;;;;;;;;;5088700;28;20002;-54
2022/09/03 05:01:30;;;;;;;;;;;;;;;;;;5086438;28;19919;-54
2022/09/03 05:03:55;;;;;;;;;;;;;;;;;;5087931;28;19943;-56
2022/09/03 05:06:20;;;;;;;;;;;;;;;;;;5085328;28;19912;-54
2022/09/03 05:08:45;;;;;;;;;;;;;;;;;;5084100;28;19927;-52
2022/09/03 05:11:10;;;;;;;;;;;;;;;;;;5086067;28;20302;-55
2022/09/03 05:13:36;;;;;;;;;;;;;;;;;;5084625;28;19942;-53
2022/09/03 05:16:01;;;;;;;;;;;;;;;;;;5082540;28;20019;-52
2022/09/03 05:18:26;;;;;;;;;;;;;;;;;;5087974;28;19916;-50
2022/09/03 05:20:51;;;;;;;;;;;;;;;;;;5085172;28;19920;-52
2022/09/03 05:23:18;;;;;;;;;;;;;;;;;;5087358;28;19923;-52
2022/09/03 05:25:43;;;;;;;;;;;;;;;;;;5085280;28;19922;-54
2022/09/03 05:28:09;;;;;;;;;;;;;;;;;;5088348;28;19995;-54
2022/09/03 05:30:35;;;;;;;;;;;;;;;;;;5068215;28;19916;-52
2022/09/03 05:33:00;;;;;;;;;;;;;;;;;;5087543;28;19916;-54
2022/09/03 05:35:25;;;;;;;;;;;;;;;;;;5071481;28;20375;-55
2022/09/03 05:37:51;;;;;;;;;;;;;;;;;;5086959;28;20444;-52
2022/09/03 05:40:16;;;;;;;;;;;;;;;;;;5087856;28;19916;-54
2022/09/03 05:42:41;;;;;;;;;;;;;;;;;;5088019;28;19916;-52
2022/09/03 05:45:09;;;;;;;;;;;;;;;;;;5087804;28;19916;-53
2022/09/03 05:47:35;;;;;;;;;;;;;;;;;;5069964;28;19916;-55
2022/09/03 05:50:00;;;;;;;;;;;;;;;;;;5085170;28;19919;-55
2022/09/03 05:52:25;;;;;;;;;;;;;;;;;;5069996;28;19962;-52
2022/09/03 05:54:50;;;;;;;;;;;;;;;;;;5087670;28;19916;-52
2022/09/03 05:57:16;;;;;;;;;;;;;;;;;;5087892;28;19923;-56
2022/09/03 05:59:41;;;;;;;;;;;;;;;;;;5086591;28;19919;-56
2022/09/03 06:02:06;;;;;;;;;;;;;;;;;;5086695;28;19947;-55
2022/09/03 06:04:32;;;;;;;;;;;;;;;;;;5071117;28;19922;-50
2022/09/03 06:06:57;;;;;;;;;;;;;;;;;;5085915;28;19924;-53
2022/09/03 06:09:22;;;;;;;;;;;;;;;;;;5086929;28;19920;-54
2022/09/03 06:11:52;;;;;;;;;;;;;;;;;;5087136;28;20378;-55
2022/09/03 06:14:17;;;;;;;;;;;;;;;;;;5085854;28;20319;-53
2022/09/03 06:16:43;;;;;;;;;;;;;;;;;;5087061;28;19967;-56
2022/09/03 06:19:12;;;;;;;;;;;;;;;;;;5086091;28;19912;-52
2022/09/03 06:21:41;;;;;;;;;;;;;;;;;;5085877;28;19920;-56
2022/09/03 06:24:06;;;;;;;;;;;;;;;;;;5090695;28;19920;-55
2022/09/03 06:26:31;;;;;;;;;;;;;;;;;;5091503;28;19919;-55
2022/09/03 06:28:57;;;;;;;;;;;;;;;;;;5088971;28;19965;-56
2022/09/03 06:31:22;;;;;;;;;;;;;;;;;;5090008;28;19912;-56
2022/09/03 06:33:47;;;;;;;;;;;;;;;;;;5066360;28;20332;-58
2022/09/03 06:36:12;;;;;;;;;;;;;;;;;;5074735;28;20464;-54
2022/09/03 06:38:38;;;;;;;;;;;;;;;;;;5090720;28;19923;-56
2022/09/03 06:41:03;;;;;;;;;;;;;;;;;;5091256;28;19919;-56
2022/09/03 06:43:28;;;;;;;;;;;;;;;;;;5091024;28;20349;-54
2022/09/03 06:45:53;;;;;;;;;;;;;;;;;;5072134;28;19916;-58
2022/09/03 06:48:19;;;;;;;;;;;;;;;;;;5089677;28;19916;-55
2022/09/03 06:50:44;;;;;;;;;;;;;;;;;;5086030;28;19920;-52
2022/09/03 06:53:09;;;;;;;;;;;;;;;;;;5088886;28;19923;-54
2022/09/03 06:55:38;;;;;;;;;;;;;;;;;;5069668;28;19985;-55
2022/09/03 06:58:03;;;;;;;;;;;;;;;;;;5087381;28;20391;-57
2022/09/03 07:00:29;;;;;;;;;;;;;;;;;;5086822;28;19920;-55
2022/09/03 07:02:54;;;;;;;;;;;;;;;;;;5087416;28;19916;-53
2022/09/03 07:05:20;;;;;;;;;;;;;;;;;;5086935;28;19916;-54
2022/09/03 07:07:45;;;;;;;;;;;;;;;;;;5087870;28;20014;-55
2022/09/03 07:10:13;;;;;;;;;;;;;;;;;;5086479;28;19934;-56
2022/09/03 07:12:38;;;;;;;;;;;;;;;;;;5085819;28;19920;-53
2022/09/03 07:15:03;;;;;;;;;;;;;;;;;;5086435;28;19954;-53
2022/09/03 07:17:28;;;;;;;;;;;;;;;;;;5085860;28;20592;-54
2022/09/03 07:19:54;;;;;;;;;;;;;;;;;;5087728;28;19916;-59
2022/09/03 07:22:19;;;;;;;;;;;;;;;;;;5071698;28;19916;-54
2022/09/03 07:24:46;;;;;;;;;;;;;;;;;;5084829;28;19920;-54
2022/09/03 07:27:11;;;;;;;;;;;;;;;;;;5068334;28;19916;-51
2022/09/03 07:29:37;;;;;;;;;;;;;;;;;;5087693;28;20401;-54
2022/09/03 07:32:02;;;;;;;;;;;;;;;;;;5085241;28;19916;-56
2022/09/03 07:34:27;;;;;;;;;;;;;;;;;;5086607;28;19969;-52
2022/09/03 07:36:52;;;;;;;;;;;;;;;;;;5087446;28;19927;-54
2022/09/03 07:39:18;;;;;;;;;;;;;;;;;;5086487;28;20440;-53
2022/09/03 07:41:44;;;;;;;;;;;;;;;;;;5086035;28;19999;-54
2022/09/03 07:44:09;;;;;;;;;;;;;;;;;;5086307;28;19912;-53
2022/09/03 07:46:35;;;;;;;;;;;;;;;;;;5086428;28;19989;-55
2022/09/03 07:49:04;;;;;;;;;;;;;;;;;;5087146;28;20297;-56
2022/09/03 07:51:29;;;;;;;;;;;;;;;;;;5067858;28;19938;-52
2022/09/03 07:53:54;;;;;;;;;;;;;;;;;;5071811;28;19957;-54
2022/09/03 07:56:20;;;;;;;;;;;;;;;;;;5086373;28;19920;-56
2022/09/03 07:58:46;;;;;;;;;;;;;;;;;;5085590;28;19920;-56
2022/09/03 08:01:12;;;;;;;;;;;;;;;;;;5086559;28;19922;-55
2022/09/03 08:03:37;;;;;;;;;;;;;;;;;;5087102;28;19916;-56
2022/09/03 08:06:02;;;;;;;;;;;;;;;;;;5085882;28;19916;-51
2022/09/03 08:08:27;;;;;;;;;;;;;;;;;;5086454;28;19916;-53
2022/09/03 08:10:52;;;;;;;;;;;;;;;;;;5085993;28;19998;-54
2022/09/03 08:13:18;;;;;;;;;;;;;;;;;;5085524;28;19930;-55
2022/09/03 08:15:43;;;;;;;;;;;;;;;;;;5083640;28;19928;-57
2022/09/03 08:18:09;;;;;;;;;;;;;;;;;;5084698;28;20430;-55
2022/09/03 08:20:34;;;;;;;;;;;;;;;;;;5085167;28;19916;-56
2022/09/03 08:22:59;;;;;;;;;;;;;;;;;;5084945;28;19977;-54
2022/09/03 08:25:25;;;;;;;;;;;;;;;;;;5083362;28;19916;-54
2022/09/03 08:27:50;;;;;;;;;;;;;;;;;;5087046;28;19916;-56
2022/09/03 08:30:16;;;;;;;;;;;;;;;;;;5085685;28;19920;-58
2022/09/03 08:32:41;;;;;;;;;;;;;;;;;;5085044;28;19969;-56
2022/09/03 08:35:08;;;;;;;;;;;;;;;;;;5084293;28;19930;-56
2022/09/03 08:37:33;;;;;;;;;;;;;;;;;;5085971;28;19999;-55
2022/09/03 08:39:59;;;;;;;;;;;;;;;;;;5085337;28;20081;-56
2022/09/03 08:42:24;;;;;;;;;;;;;;;;;;5066215;28;19916;-55
2022/09/03 08:44:50;;;;;;;;;;;;;;;;;;5085025;28;20285;-57
2022/09/03 08:47:15;;;;;;;;;;;;;;;;;;5065064;28;19920;-56
2022/09/03 08:49:40;;;;;;;;;;;;;;;;;;5086070;28;20092;-57
2022/09/03 08:52:05;;;;;;;;;;;;;;;;;;5084433;28;19923;-57
2022/09/03 08:54:31;;;;;;;;;;;;;;;;;;5066549;28;19923;-55
2022/09/03 08:56:56;;;;;;;;;;;;;;;;;;5084875;28;19971;-59
2022/09/03 08:59:22;;;;;;;;;;;;;;;;;;5085068;28;19916;-56
2022/09/03 09:01:47;;;;;;;;;;;;;;;;;;5083940;28;19974;-56
2022/09/03 09:04:12;;;;;;;;;;;;;;;;;;5085650;28;20289;-58
2022/09/03 09:06:38;;;;;;;;;;;;;;;;;;5065585;28;19967;-57
2022/09/03 09:09:03;;;;;;;;;;;;;;;;;;5085524;28;19916;-58
2022/09/03 09:11:28;;;;;;;;;;;;;;;;;;5083157;28;19916;-58
2022/09/03 09:13:54;;;;;;;;;;;;;;;;;;5084150;28;19920;-58
2022/09/03 09:16:20;;;;;;;;;;;;;;;;;;5085186;28;19943;-57
2022/09/03 09:18:45;;;;;;;;;;;;;;;;;;5085430;28;20434;-58
2022/09/03 09:21:12;;;;;;;;;;;;;;;;;;5083696;28;19927;-58
2022/09/03 09:23:38;;;;;;;;;;;;;;;;;;5084381;28;19958;-57
2022/09/03 09:26:04;;;;;;;;;;;;;;;;;;5084598;28;19963;-58
2022/09/03 09:28:29;;;;;;;;;;;;;;;;;;5085254;28;20050;-57
2022/09/03 09:30:54;;;;;;;;;;;;;;;;;;5082073;28;20007;-57
2022/09/03 09:33:19;;;;;;;;;;;;;;;;;;5084239;28;19941;-57
2022/09/03 09:35:45;;;;;;;;;;;;;;;;;;5084428;28;19977;-58
2022/09/03 09:38:10;;;;;;;;;;;;;;;;;;5085263;28;19915;-57
2022/09/03 09:40:35;;;;;;;;;;;;;;;;;;5083773;28;20715;-58
2022/09/03 09:43:01;;;;;;;;;;;;;;;;;;5066419;28;19916;-59
2022/09/03 09:45:26;;;;;;;;;;;;;;;;;;5084399;28;19955;-57
2022/09/03 09:47:52;;;;;;;;;;;;;;;;;;5084256;28;19923;-57
2022/09/03 09:50:17;;;;;;;;;;;;;;;;;;5064840;28;19923;-58
2022/09/03 09:52:44;;;;;;;;;;;;;;;;;;5085370;28;19920;-57
2022/09/03 09:55:09;;;;;;;;;;;;;;;;;;5085053;28;20025;-57
2022/09/03 09:57:36;;;;;;;;;;;;;;;;;;5082439;28;19989;-56
2022/09/03 10:00:02;;;;;;;;;;;;;;;;;;5084746;28;20191;-58
2022/09/03 10:02:39;;;;;;;;;;;;;;;;;;5078509;28;19931;-57
2022/09/03 10:05:04;;;;;;;;;;;;;;;;;;5081148;28;19923;-58
2022/09/03 10:07:32;;;;;;;;;;;;;;;;;;5082390;28;19916;-58
2022/09/03 10:09:57;;;;;;;;;;;;;;;;;;5079810;28;20371;-58
2022/09/03 10:12:23;;;;;;;;;;;;;;;;;;5077881;28;19931;-57
2022/09/03 10:14:48;;;;;;;;;;;;;;;;;;5083783;28;20025;-57
2022/09/03 10:17:13;;;;;;;;;;;;;;;;;;5083994;28;19977;-58
2022/09/03 10:19:39;;;;;;;;;;;;;;;;;;5084824;28;19912;-57
2022/09/03 10:22:04;;;;;;;;;;;;;;;;;;5082172;28;20369;-58
2022/09/03 10:24:30;;;;;;;;;;;;;;;;;;5084671;28;20363;-58
2022/09/03 10:26:57;;;;;;;;;;;;;;;;;;5069482;28;19915;-58
2022/09/03 10:29:22;;;;;;;;;;;;;;;;;;5084973;28;20335;-57
2022/09/03 10:31:47;;;;;;;;;;;;;;;;;;5084240;28;20365;-57
2022/09/03 10:34:12;;;;;;;;;;;;;;;;;;5065915;28;19919;-57
2022/09/03 10:36:38;;;;;;;;;;;;;;;;;;5083124;28;19924;-57
2022/09/03 10:39:03;;;;;;;;;;;;;;;;;;5083239;28;20055;-58
2022/09/03 10:41:28;;;;;;;;;;;;;;;;;;5083441;28;20325;-58
2022/09/03 10:43:53;;;;;;;;;;;;;;;;;;5084481;28;19920;-57
2022/09/03 10:46:21;;;;;;;;;;;;;;;;;;5081839;28;19916;-58
2022/09/03 10:48:46;;;;;;;;;;;;;;;;;;5083369;28;19931;-57
2022/09/03 10:51:11;;;;;;;;;;;;;;;;;;5080907;28;19916;-57
2022/09/03 10:53:37;;;;;;;;;;;;;;;;;;5082021;28;19989;-58
2022/09/03 10:56:02;;;;;;;;;;;;;;;;;;5081846;28;19923;-57
2022/09/03 10:58:27;;;;;;;;;;;;;;;;;;5082549;28;20440;-57
2022/09/03 11:00:52;;;;;;;;;;;;;;;;;;5081846;28;20348;-58
2022/09/03 11:03:18;;;;;;;;;;;;;;;;;;5082539;28;20268;-58
2022/09/03 11:05:44;;;;;;;;;;;;;;;;;;5081027;28;20013;-58
2022/09/03 11:08:09;;;;;;;;;;;;;;;;;;5082660;28;20360;-58
2022/09/03 11:10:34;;;;;;;;;;;;;;;;;;5082364;28;19916;-58
2022/09/03 11:12:59;;;;;;;;;;;;;;;;;;5051937;28;19969;-58
2022/09/03 11:15:25;;;;;;;;;;;;;;;;;;5084977;28;19924;-57
2022/09/03 11:17:50;;;;;;;;;;;;;;;;;;5087912;28;19967;-58
2022/09/03 11:20:15;;;;;;;;;;;;;;;;;;5086723;28;19920;-58
2022/09/03 11:22:41;;;;;;;;;;;;;;;;;;5086741;28;20404;-58
2022/09/03 11:25:07;;;;;;;;;;;;;;;;;;5086575;28;19982;-58
2022/09/03 11:27:32;;;;;;;;;;;;;;;;;;5085506;28;19916;-57
2022/09/03 11:29:57;;;;;;;;;;;;;;;;;;5086622;28;19915;-57
2022/09/03 11:32:23;;;;;;;;;;;;;;;;;;5087006;28;19942;-57
2022/09/03 11:34:48;;;;;;;;;;;;;;;;;;5086707;28;20003;-58
2022/09/03 11:37:13;;;;;;;;;;;;;;;;;;5087045;28;20379;-57
2022/09/03 11:39:38;;;;;;;;;;;;;;;;;;5067368;28;20003;-58
2022/09/03 11:42:06;;;;;;;;;;;;;;;;;;5086542;28;20372;-58
2022/09/03 11:44:33;;;;;;;;;;;;;;;;;;5087162;28;19923;-57
2022/09/03 11:46:58;;;;;;;;;;;;;;;;;;5085346;28;19916;-57
2022/09/03 11:49:24;;;;;;;;;;;;;;;;;;5087629;28;19920;-57
2022/09/03 11:51:49;;;;;;;;;;;;;;;;;;5086122;28;19916;-59
2022/09/03 11:54:14;;;;;;;;;;;;;;;;;;5085558;28;19961;-59
2022/09/03 11:56:39;;;;;;;;;;;;;;;;;;5083966;28;21095;-58
2022/09/03 11:59:04;;;;;;;;;;;;;;;;;;5087757;28;20373;-59
2022/09/03 12:01:30;;;;;;;;;;;;;;;;;;5085616;28;19915;-59
2022/09/03 12:03:55;;;;;;;;;;;;;;;;;;5067163;28;20435;-59
2022/09/03 12:06:21;;;;;;;;;;;;;;;;;;5086249;28;19961;-58
2022/09/03 12:08:46;;;;;;;;;;;;;;;;;;5085788;28;19951;-58
2022/09/03 12:11:12;;;;;;;;;;;;;;;;;;5084708;28;19917;-57
2022/09/03 12:13:39;;;;;;;;;;;;;;;;;;5084448;28;20450;-56
2022/09/03 12:16:04;;;;;;;;;;;;;;;;;;5085000;28;19937;-59
2022/09/03 12:18:29;;;;;;;;;;;;;;;;;;5086649;28;20436;-58
2022/09/03 12:20:55;;;;;;;;;;;;;;;;;;5084951;28;19917;-58
2022/09/03 12:23:20;;;;;;;;;;;;;;;;;;5085210;28;20326;-58
2022/09/03 12:25:46;;;;;;;;;;;;;;;;;;5070990;28;19916;-58
2022/09/03 12:28:11;;;;;;;;;;;;;;;;;;5067714;28;20334;-59
2022/09/03 12:30:36;;;;;;;;;;;;;;;;;;5086168;28;19920;-58
2022/09/03 12:33:03;;;;;;;;;;;;;;;;;;5084818;28;20289;-58
2022/09/03 12:35:28;;;;;;;;;;;;;;;;;;5069320;28;20386;-59
2022/09/03 12:37:54;;;;;;;;;;;;;;;;;;5086034;28;19948;-57
2022/09/03 12:40:20;;;;;;;;;;;;;;;;;;5085245;28;19916;-58
2022/09/03 12:42:45;;;;;;;;;;;;;;;;;;5084958;28;19923;-59
2022/09/03 12:45:14;;;;;;;;;;;;;;;;;;5082408;28;19916;-57
2022/09/03 12:47:39;;;;;;;;;;;;;;;;;;5086460;28;20432;-58
2022/09/03 12:50:06;;;;;;;;;;;;;;;;;;5085383;28;20682;-58
2022/09/03 12:52:31;;;;;;;;;;;;;;;;;;5067487;28;19985;-58
2022/09/03 12:54:57;;;;;;;;;;;;;;;;;;5082359;28;19919;-57
2022/09/03 12:57:22;;;;;;;;;;;;;;;;;;5081253;28;19916;-57
2022/09/03 12:59:47;;;;;;;;;;;;;;;;;;5084144;28;19950;-57
2022/09/03 13:02:12;;;;;;;;;;;;;;;;;;5083942;28;20390;-56
2022/09/03 13:04:37;;;;;;;;;;;;;;;;;;5085248;28;19923;-57
2022/09/03 13:07:03;;;;;;;;;;;;;;;;;;5085899;28;20416;-57
2022/09/03 13:09:28;;;;;;;;;;;;;;;;;;5084966;28;19916;-56
2022/09/03 13:11:54;;;;;;;;;;;;;;;;;;5083994;28;19927;-57
2022/09/03 13:14:19;;;;;;;;;;;;;;;;;;5084935;28;20373;-58
2022/09/03 13:16:44;;;;;;;;;;;;;;;;;;5067797;28;20189;-56
2022/09/03 13:19:10;;;;;;;;;;;;;;;;;;5085400;28;19916;-57
2022/09/03 13:21:35;;;;;;;;;;;;;;;;;;5087039;28;19916;-56
2022/09/03 13:24:00;;;;;;;;;;;;;;;;;;5088003;28;19922;-55
2022/09/03 13:26:25;;;;;;;;;;;;;;;;;;5070727;28;19923;-56
2022/09/03 13:28:51;;;;;;;;;;;;;;;;;;5086848;28;19966;-56
2022/09/03 13:31:16;;;;;;;;;;;;;;;;;;5086596;28;19965;-57
2022/09/03 13:33:41;;;;;;;;;;;;;;;;;;5087069;28;20465;-56
2022/09/03 13:36:06;;;;;;;;;;;;;;;;;;5087000;28;19924;-56
2022/09/03 13:38:31;;;;;;;;;;;;;;;;;;5087944;28;19916;-52
2022/09/03 13:40:57;;;;;;;;;;;;;;;;;;5088189;28;19969;-53
2022/09/03 13:43:22;;;;;;;;;;;;;;;;;;5088204;28;19923;-54
2022/09/03 13:45:47;;;;;;;;;;;;;;;;;;5084902;28;20534;-57
2022/09/03 13:50:56;;;;;;;;;;;;;;;;;;5084159;28;19924;-57
2022/09/03 13:53:21;;;;;;;;;;;;;;;;;;5084216;28;19916;-55
2022/09/03 13:55:47;;;;;;;;;;;;;;;;;;5082864;28;20003;-56
2022/09/03 13:58:12;;;;;;;;;;;;;;;;;;5069327;28;19924;-56
2022/09/03 14:00:37;;;;;;;;;;;;;;;;;;5066591;28;19916;-58
2022/09/03 14:03:02;;;;;;;;;;;;;;;;;;5084105;28;20085;-58
2022/09/03 14:05:27;;;;;;;;;;;;;;;;;;5065427;28;19916;-57
2022/09/03 14:07:54;;;;;;;;;;;;;;;;;;5084157;28;19952;-55
2022/09/03 14:10:19;;;;;;;;;;;;;;;;;;5069660;28;20023;-54
2022/09/03 14:12:45;;;;;;;;;;;;;;;;;;5083628;28;20014;-57
2022/09/03 14:15:10;;;;;;;;;;;;;;;;;;5082304;28;20062;-57
2022/09/03 14:17:36;;;;;;;;;;;;;;;;;;5085069;28;19923;-55
2022/09/03 14:20:02;;;;;;;;;;;;;;;;;;5084510;28;20047;-61
2022/09/03 14:22:27;;;;;;;;;;;;;;;;;;5082158;28;19916;-57
2022/09/03 14:24:53;;;;;;;;;;;;;;;;;;5081964;28;20468;-59
2022/09/03 14:27:18;;;;;;;;;;;;;;;;;;5084049;28;19947;-58
2022/09/03 14:29:43;;;;;;;;;;;;;;;;;;5067783;28;19916;-58
2022/09/03 14:32:08;;;;;;;;;;;;;;;;;;5081354;28;19970;-58
2022/09/03 14:34:34;;;;;;;;;;;;;;;;;;5084153;28;19940;-59
2022/09/03 14:36:59;;;;;;;;;;;;;;;;;;5084562;28;19942;-57
2022/09/03 14:39:24;;;;;;;;;;;;;;;;;;5083674;28;20675;-58
2022/09/03 14:41:49;;;;;;;;;;;;;;;;;;5070443;28;19997;-58
2022/09/03 14:44:15;;;;;;;;;;;;;;;;;;5085393;28;20437;-62
2022/09/03 14:46:41;;;;;;;;;;;;;;;;;;5088258;28;20372;-58
2022/09/03 14:49:06;;;;;;;;;;;;;;;;;;5088175;28;19924;-59
2022/09/03 14:51:31;;;;;;;;;;;;;;;;;;5086954;28;20504;-57
2022/09/03 14:53:57;;;;;;;;;;;;;;;;;;5085430;28;19920;-58
2022/09/03 14:56:22;;;;;;;;;;;;;;;;;;5087798;28;20373;-58
2022/09/03 14:58:47;;;;;;;;;;;;;;;;;;5087561;28;19951;-59
2022/09/03 15:01:13;;;;;;;;;;;;;;;;;;5085887;28;19927;-58
2022/09/03 15:03:39;;;;;;;;;;;;;;;;;;5084883;28;19939;-56
2022/09/03 15:06:04;;;;;;;;;;;;;;;;;;5068961;28;19912;-58
2022/09/03 15:08:29;;;;;;;;;;;;;;;;;;5086277;28;20084;-58
2022/09/03 15:10:54;;;;;;;;;;;;;;;;;;5088872;28;19965;-58
2022/09/03 15:13:20;;;;;;;;;;;;;;;;;;5086923;28;19962;-59
2022/09/03 15:15:45;;;;;;;;;;;;;;;;;;5087512;28;19936;-58
2022/09/03 15:18:10;;;;;;;;;;;;;;;;;;5087550;28;19923;-57
2022/09/03 15:20:36;;;;;;;;;;;;;;;;;;5086848;28;20049;-57
2022/09/03 15:23:01;;;;;;;;;;;;;;;;;;5084175;28;20272;-58
2022/09/03 15:25:26;;;;;;;;;;;;;;;;;;5086935;28;19939;-57
2022/09/03 15:27:51;;;;;;;;;;;;;;;;;;5085053;28;20044;-58
2022/09/03 15:30:20;;;;;;;;;;;;;;;;;;5085654;28;20269;-56
2022/09/03 15:32:45;;;;;;;;;;;;;;;;;;5085863;28;19916;-58
2022/09/03 15:35:10;;;;;;;;;;;;;;;;;;5086090;28;20347;-58
2022/09/03 15:37:36;;;;;;;;;;;;;;;;;;5087216;28;19951;-56
2022/09/03 15:40:01;;;;;;;;;;;;;;;;;;5084767;28;20380;-58
2022/09/03 15:42:26;;;;;;;;;;;;;;;;;;5086150;28;19923;-57
2022/09/03 15:44:52;;;;;;;;;;;;;;;;;;5086778;28;19916;-58
2022/09/03 15:47:20;;;;;;;;;;;;;;;;;;5086146;28;19927;-57
2022/09/03 15:49:45;;;;;;;;;;;;;;;;;;5080531;28;20220;-58
2022/09/03 15:52:10;;;;;;;;;;;;;;;;;;5080911;28;19920;-58
2022/09/03 15:54:36;;;;;;;;;;;;;;;;;;5066209;28;19932;-57
2022/09/03 15:57:01;;;;;;;;;;;;;;;;;;5065697;28;20317;-58
2022/09/03 15:59:26;;;;;;;;;;;;;;;;;;5082474;28;20697;-58
2022/09/03 16:01:52;;;;;;;;;;;;;;;;;;5063074;28;20373;-58
2022/09/03 16:04:19;;;;;;;;;;;;;;;;;;5084616;28;19920;-58
2022/09/03 16:06:47;;;;;;;;;;;;;;;;;;5082929;28;20345;-58
2022/09/03 16:09:12;;;;;;;;;;;;;;;;;;5058982;28;19912;-60
2022/09/03 16:11:37;;;;;;;;;;;;;;;;;;5074615;28;19927;-58
2022/09/03 16:14:02;;;;;;;;;;;;;;;;;;5083373;28;19922;-58
2022/09/03 16:16:29;;;;;;;;;;;;;;;;;;5084568;28;20050;-59
2022/09/03 16:18:54;;;;;;;;;;;;;;;;;;5067723;28;19970;-60
2022/09/03 16:21:19;;;;;;;;;;;;;;;;;;5065342;28;20022;-57
2022/09/03 16:23:44;;;;;;;;;;;;;;;;;;5083215;28;20495;-58
2022/09/03 16:26:10;;;;;;;;;;;;;;;;;;5083758;28;19916;-60
2022/09/03 16:28:35;;;;;;;;;;;;;;;;;;5086147;28;19916;-57
2022/09/03 16:31:02;;;;;;;;;;;;;;;;;;5083835;28;19916;-57
2022/09/03 16:33:28;;;;;;;;;;;;;;;;;;5084088;28;20077;-58
2022/09/03 16:35:56;;;;;;;;;;;;;;;;;;5083947;28;19923;-56
2022/09/03 16:38:21;;;;;;;;;;;;;;;;;;5084250;28;19923;-58